Forside
METAR-TAF:

METAR-TAF

Lufthavne :

Lossiemouth, Skotland

Breddekreds: 57-43N, længdekreds: 003-19W, højde: 13 m

Aktuelle vejr

Denne rapport blev lavet for 1 time og 1 minutter siden, kl. 16:50 UTC
Vind 19 kt fra vestsydvest
Temperatur 6°C
Fugtighed 75%
Tryk 989 hPa
Sigt 10 km eller mere
Nogle få skyer i en højde af 1800 ft, Cumulonimbus.

METAR: EGQS 171650Z 25019KT 9999 FEW018CB 06/02 Q0989 NOSIG RMK BLU BLU

Tid: 17:51 (17:51 UTC)

Vejrudsigter

Denne rapport blev lavet for 1 time og 1 minutter siden, kl. 16:50 UTC
Foreløbig gælder fra 17 på 18 UTC til 18 på 12 UTC
Vind 20 kt fra vestsydvest med vindstød på up til 30 kt
Sigt 10 km eller mere
Nogle få skyer i en højde af 2000 ft
Sandsynlighed 30% :
Midlertidig
fra 18 på 00 UTC til 18 på 08 UTC
Sigt: 5000 m
Spredte skyer i en højde af 1400 ft, Cumulonimbus.
regnbyger, sne

TAF: EGQS 171650Z 1718/1812 24020G30KT 9999 FEW020 PROB30 TEMPO 1800/1808 5000 SHRASN SCT014CB

Vejrobservationer og prognoser fra mere end 4000 lufthavne (METAR og TAF).

De gule og røde prikker repræsenterer de meteorologiske stationer.

Flyt musen over at se navnet på stationen.

Så klik over at se vejr observationer og prognoser.

At skifte det kort: Klik på de grønne knapper med et sort kors for at zoome ind; på den grønne knap med en bindestreg for at zoome ud; eller på de grønne pile for tilstødende kort.


METAR-TAF: